X  Luk Metar data        LYNI Nis Airport
Temperatur
97°F Temperatur
57°F Duggpunkt
27% Fugtighed



Vind
3 MPT
6 KM/T
1 M/S
3 KNOB



-1°
VRB
Nuværende forhold

Mostly Sunny Mest solrig
Tryk 1014 (hPa) - 29.95 (inHg)
Sigt 6 (mil) - 10 (km)
Lufthavn
Lufthavnskode LYNI

Lokation: Nis Airport
Afstand: 63 (mi)

Metar:
METAR LYNI 191430Z VRB03KT 9999 FEW047 36/14 Q1016 NOSIG

Tid: 19-06-2024 16:30 CEST